Погода Саткхирана неделю

Кхулна, Бангладеш

04 - 10 февраля
  • 04февраля
    Сегодня
    +12°
    +27°
    Практически безоблачно
    ВремяПогодаТемператураВлажностьДавлениеВетер, м/сВероятность осадков
    00:00Ясно и безоблачно+15°C83 %758 мм0.0 м/с2 %
    03:00Небольшая облачность+14°C91 %758 мм1.9 м/с2 %
    06:00Ясно и безоблачно+12°C93 %758 мм2.3 м/с2 %
    09:00Практически безоблачно+20°C72 %760 мм0.0 м/с2 %
    12:00Небольшая облачность+24°C47 %758 мм0.2 м/с2 %
    15:00Практически безоблачно+26°C40 %756 мм0.3 м/с2 %
    18:00Ясно и безоблачно+21°C53 %756 мм2.2 м/с2 %
    21:00Ясно и безоблачно+18°C71 %757 мм2.2 м/с2 %
  • 05февраля
    Воскресенье
    +12°
    +28°
    Ясно и безоблачно
    ВремяПогодаТемператураВлажностьДавлениеВетер, м/сВероятность осадков
    00:00Ясно и безоблачно+16°C75 %758 мм2.6 м/с2 %
    03:00Практически безоблачно+15°C74 %757 мм2.5 м/с2 %
    06:00Практически безоблачно+13°C86 %758 мм1.9 м/с2 %
    09:00Практически безоблачно+18°C70 %760 мм0.0 м/с2 %
    12:00Ясно и безоблачно+25°C42 %758 мм0.0 м/с2 %
    15:00Ясно и безоблачно+27°C33 %756 мм0.1 м/с2 %
    18:00Ясно и безоблачно+22°C51 %756 мм2.3 м/с2 %
    21:00Ясно и безоблачно+20°C57 %758 мм1.5 м/с2 %
  • 06февраля
    Понедельник
    +15°
    +29°
    Ясно и безоблачно
    ВремяПогодаТемператураВлажностьДавлениеВетер, м/сВероятность осадков
    00:00Ясно и безоблачно+19°C69 %758 мм0.7 м/с2 %
    03:00Ясно и безоблачно+14°C89 %757 мм1.5 м/с2 %
    06:00Практически безоблачно+13°C92 %758 мм0.1 м/с2 %
    09:00Ясно и безоблачно+18°C75 %760 мм0.0 м/с2 %
    12:00Ясно и безоблачно+26°C37 %758 мм0.0 м/с2 %
    15:00Ясно и безоблачно+28°C25 %756 мм0.2 м/с2 %
    18:00Ясно и безоблачно+22°C41 %756 мм2.3 м/с2 %
    21:00Ясно и безоблачно+19°C53 %757 мм1.6 м/с2 %
  • 07февраля
    Вторник
    +17°
    +30°
    Ясно и безоблачно
    ВремяПогодаТемператураВлажностьДавлениеВетер, м/сВероятность осадков
    00:00Ясно и безоблачно+16°C86 %756 мм2.6 м/с2 %
    03:00Ясно и безоблачно+17°C90 %756 мм2.7 м/с2 %
    06:00Ясно и безоблачно+15°C98 %756 мм2.0 м/с2 %
    09:00Ясно и безоблачно+21°C85 %758 мм0.2 м/с2 %
    12:00Ясно и безоблачно+27°C48 %757 мм0.2 м/с2 %
    15:00Ясно и безоблачно+29°C33 %755 мм0.2 м/с2 %
    18:00Ясно и безоблачно+24°C41 %755 мм1.7 м/с2 %
    21:00Ясно и безоблачно+21°C81 %756 мм3.9 м/с2 %
  • 08февраля
    Среда
    +13°
    +30°
    Ясно и безоблачно
    ВремяПогодаТемператураВлажностьДавлениеВетер, м/сВероятность осадков
    00:00Ясно и безоблачно+19°C95 %756 мм3.5 м/с2 %
    03:00Облачно с прояснениями+19°C99 %756 мм1.8 м/с2 %
    06:00Пасмурно, сплошная облачность+19°C95 %756 мм1.7 м/с2 %
    09:00Небольшая облачность+22°C86 %758 мм0.2 м/с9 %
    12:00Ясно и безоблачно+28°C54 %758 мм0.0 м/с14 %
    15:00Ясно и безоблачно+29°C34 %755 мм0.1 м/с3 %
    18:00Ясно и безоблачно+24°C46 %756 мм1.9 м/с2 %
    21:00Ясно и безоблачно+20°C59 %757 мм2.5 м/с2 %
Мы используем cookies
Соглашаюсь